Time;durP1;ratioP1;P1;durP2;ratioP2;P2;SDS_P1;SDS_P2;PMS_P1;PMS_P2;Temp;Humidity;BMP_temperature;BMP_pressure;BME280_temperature;BME280_humidity;BME280_pressure;Samples;Min_cycle;Max_cycle;Signal;HPM_P1;HPM_P2
2023/12/16 00:00:21;;;;;;;6.03;2.65;;;6.90;99.90;;;;;;5070570;28;20447;-70
2023/12/16 00:02:48;;;;;;;7.25;2.63;;;6.90;99.90;;;;;;5069778;28;20052;-70
2023/12/16 00:05:15;;;;;;;7.90;2.55;;;6.90;99.90;;;;;;5070218;28;20056;-71
2023/12/16 00:07:43;;;;;;;9.15;2.42;;;8.10;99.90;;;;;;5070635;28;20040;-71
2023/12/16 00:10:11;;;;;;;11.23;3.75;;;6.90;99.90;;;;;;5069531;28;20048;-71
2023/12/16 00:12:38;;;;;;;6.10;2.92;;;6.90;99.90;;;;;;5070129;28;20127;-70
2023/12/16 00:15:06;;;;;;;8.27;3.17;;;6.90;99.90;;;;;;5068378;28;20048;-70
2023/12/16 00:17:32;;;;;;;12.52;3.15;;;7.00;99.90;;;;;;5069846;28;20052;-70
2023/12/16 00:19:59;;;;;;;6.15;2.50;;;6.90;99.90;;;;;;5070493;28;20512;-70
2023/12/16 00:22:26;;;;;;;7.20;2.50;;;6.90;99.90;;;;;;5070220;28;20563;-70
2023/12/16 00:24:54;;;;;;;5.53;2.63;;;6.90;99.90;;;;;;5069898;28;20587;-70
2023/12/16 00:27:21;;;;;;;8.13;2.67;;;6.80;99.90;;;;;;5070389;28;20048;-69
2023/12/16 00:29:48;;;;;;;10.25;2.90;;;6.80;99.90;;;;;;5069808;28;20139;-69
2023/12/16 00:32:15;;;;;;;7.97;2.50;;;6.70;99.90;;;;;;5069424;28;20044;-69
2023/12/16 00:34:42;;;;;;;6.15;2.67;;;6.70;99.90;;;;;;5068136;28;20136;-69
2023/12/16 00:37:09;;;;;;;10.25;2.55;;;6.70;99.90;;;;;;5073892;28;20431;-70
2023/12/16 00:39:36;;;;;;;11.48;2.47;;;6.70;99.90;;;;;;5073083;28;20051;-68
2023/12/16 00:42:05;;;;;;;9.02;2.58;;;6.60;99.90;;;;;;5073680;28;20447;-69
2023/12/16 00:44:33;;;;;;;8.82;3.20;;;6.60;99.90;;;;;;5073440;28;20106;-69
2023/12/16 00:47:00;;;;;;;6.80;2.47;;;6.50;99.90;;;;;;5073175;28;20053;-69
2023/12/16 00:49:28;;;;;;;6.55;2.35;;;6.40;99.90;;;;;;5073419;28;20044;-69
2023/12/16 00:51:56;;;;;;;7.47;2.40;;;6.40;99.90;;;;;;5073098;28;20056;-69
2023/12/16 00:54:23;;;;;;;5.10;2.05;;;6.30;99.90;;;;;;5073786;28;20448;-70
2023/12/16 00:56:50;;;;;;;8.18;3.28;;;6.30;99.90;;;;;;5073597;28;20052;-69
2023/12/16 00:59:18;;;;;;;6.82;2.85;;;6.30;99.90;;;;;;5073222;28;20052;-69
2023/12/16 01:01:45;;;;;;;6.00;2.17;;;6.30;99.90;;;;;;5073586;28;20109;-70
2023/12/16 01:04:12;;;;;;;6.78;2.35;;;6.20;99.90;;;;;;5073418;28;20108;-68
2023/12/16 01:06:39;;;;;;;9.82;2.53;;;6.10;99.90;;;;;;5072597;28;20045;-68
2023/12/16 01:09:06;;;;;;;6.15;2.53;;;6.10;99.90;;;;;;5073379;28;20045;-69
2023/12/16 01:11:33;;;;;;;6.38;2.63;;;6.10;99.90;;;;;;5073058;28;20442;-70
2023/12/16 01:14:00;;;;;;;6.05;2.30;;;6.10;99.90;;;;;;5072851;28;20358;-70
2023/12/16 01:16:28;;;;;;;6.13;2.22;;;6.00;99.90;;;;;;5073231;28;20041;-69
2023/12/16 01:18:55;;;;;;;6.68;2.20;;;6.00;99.90;;;;;;5073411;28;20106;-69
2023/12/16 01:21:22;;;;;;;9.27;2.22;;;6.00;99.90;;;;;;5072538;28;20093;-69
2023/12/16 01:23:49;;;;;;;6.47;2.28;;;6.00;99.90;;;;;;5073053;28;20052;-69
2023/12/16 01:26:15;;;;;;;8.52;2.60;;;5.90;99.90;;;;;;5073216;28;20041;-69
2023/12/16 01:28:42;;;;;;;7.57;2.42;;;5.90;99.90;;;;;;5072518;28;20051;-69
2023/12/16 01:31:09;;;;;;;8.02;2.20;;;5.90;99.90;;;;;;5072576;28;20086;-69
2023/12/16 01:33:37;;;;;;;11.10;2.42;;;5.90;99.90;;;;;;5073117;28;20178;-69
2023/12/16 01:36:05;;;;;;;10.18;3.03;;;5.90;99.90;;;;;;5072212;28;20097;-70
2023/12/16 01:38:32;;;;;;;8.90;2.40;;;6.00;99.90;;;;;;5073031;28;20540;-69
2023/12/16 01:40:59;;;;;;;8.18;2.45;;;5.90;99.90;;;;;;5070588;28;20550;-69
2023/12/16 01:43:26;;;;;;;7.93;2.53;;;5.90;99.90;;;;;;5072010;28;20459;-69
2023/12/16 01:45:58;;;;;;;16.15;2.58;;;5.90;99.90;;;;;;5072535;28;20063;-69
2023/12/16 01:48:25;;;;;;;7.22;2.45;;;5.90;99.90;;;;;;5069932;28;20056;-69
2023/12/16 01:50:54;;;;;;;7.05;2.22;;;5.90;99.90;;;;;;5072317;28;20553;-69
2023/12/16 01:53:20;;;;;;;8.70;2.20;;;5.90;99.90;;;;;;5072578;28;20488;-70
2023/12/16 01:55:47;;;;;;;9.05;2.20;;;5.90;99.90;;;;;;5071950;28;20094;-70
2023/12/16 01:58:15;;;;;;;7.22;2.15;;;5.90;99.90;;;;;;5072196;28;20052;-70
2023/12/16 02:00:44;;;;;;;7.32;2.47;;;5.90;99.90;;;;;;5070197;28;20505;-69
2023/12/16 02:03:13;;;;;;;4.63;2.15;;;5.90;99.90;;;;;;5071704;28;20053;-69
2023/12/16 02:05:40;;;;;;;5.63;2.33;;;5.90;99.90;;;;;;5071981;28;20048;-69
2023/12/16 02:08:09;;;;;;;7.30;2.15;;;5.90;99.90;;;;;;5072210;28;20063;-69
2023/12/16 02:10:36;;;;;;;7.32;2.17;;;5.90;99.90;;;;;;5071228;28;20485;-69
2023/12/16 02:13:03;;;;;;;7.53;2.67;;;5.90;99.90;;;;;;5072146;28;20049;-69
2023/12/16 02:15:29;;;;;;;10.02;2.20;;;5.90;99.90;;;;;;5071786;28;20514;-69
2023/12/16 02:17:57;;;;;;;9.73;2.55;;;5.90;99.90;;;;;;5071140;28;20045;-69
2023/12/16 02:20:24;;;;;;;9.13;2.47;;;5.90;99.90;;;;;;5072110;28;20544;-69
2023/12/16 02:22:51;;;;;;;8.43;2.20;;;5.90;99.90;;;;;;5071839;28;20052;-69
2023/12/16 02:25:20;;;;;;;8.52;2.60;;;5.90;99.90;;;;;;5071429;28;20060;-69
2023/12/16 02:27:47;;;;;;;5.55;2.40;;;5.80;99.90;;;;;;5071902;28;20492;-69
2023/12/16 02:30:14;;;;;;;11.02;2.70;;;5.80;99.90;;;;;;5071711;28;20036;-69
2023/12/16 02:32:42;;;;;;;10.10;2.75;;;5.80;99.90;;;;;;5071036;28;20055;-69
2023/12/16 02:35:09;;;;;;;15.68;2.53;;;5.80;99.90;;;;;;5071878;28;20056;-69
2023/12/16 02:37:36;;;;;;;9.55;2.38;;;5.70;99.90;;;;;;5071042;28;20052;-70
2023/12/16 02:40:03;;;;;;;8.13;2.30;;;5.70;99.90;;;;;;5071780;28;20058;-70
2023/12/16 02:42:32;;;;;;;11.38;2.90;;;5.60;99.90;;;;;;5071546;28;20492;-70
2023/12/16 02:44:58;;;;;;;10.35;2.50;;;5.60;99.90;;;;;;5070681;28;20052;-70
2023/12/16 02:47:25;;;;;;;9.57;2.20;;;5.50;99.90;;;;;;5071583;28;20102;-69
2023/12/16 02:49:52;;;;;;;13.75;3.30;;;5.50;99.90;;;;;;5071516;28;20399;-68
2023/12/16 02:52:19;;;;;;;11.23;2.53;;;5.50;99.90;;;;;;5070719;28;20052;-69
2023/12/16 02:54:46;;;;;;;12.15;2.47;;;5.40;99.90;;;;;;5072499;28;20044;-68
2023/12/16 02:57:13;;;;;;;8.38;2.65;;;5.40;99.90;;;;;;5070890;28;20048;-69
2023/12/16 02:59:41;;;;;;;9.13;2.28;;;5.40;99.90;;;;;;5070127;28;20044;-70
2023/12/16 03:02:08;;;;;;;7.75;2.42;;;5.40;99.90;;;;;;5068675;28;20133;-69
2023/12/16 03:04:35;;;;;;;8.27;3.08;;;5.40;99.90;;;;;;5071252;28;20102;-70
2023/12/16 03:07:02;;;;;;;11.95;3.10;;;5.40;99.90;;;;;;5070540;28;20053;-69
2023/12/16 03:09:28;;;;;;;8.95;2.60;;;5.40;99.90;;;;;;5070348;28;20504;-68
2023/12/16 03:11:55;;;;;;;15.38;3.65;;;5.40;99.90;;;;;;5071154;28;20057;-69
2023/12/16 03:14:22;;;;;;;8.68;2.45;;;5.40;99.90;;;;;;5068130;28;20048;-69
2023/12/16 03:16:50;;;;;;;9.57;2.63;;;5.30;99.90;;;;;;5070952;28;20452;-69
2023/12/16 03:19:17;;;;;;;10.80;3.58;;;5.30;99.90;;;;;;5070991;28;20045;-70
2023/12/16 03:21:44;;;;;;;10.60;2.70;;;5.30;99.90;;;;;;5070396;28;20105;-70
2023/12/16 03:24:12;;;;;;;14.85;3.47;;;5.30;99.90;;;;;;5070886;28;20446;-70
2023/12/16 03:26:39;;;;;;;11.13;3.10;;;5.20;99.90;;;;;;5070341;28;20048;-69
2023/12/16 03:29:06;;;;;;;12.80;2.83;;;5.20;99.90;;;;;;5070817;28;20447;-71
2023/12/16 03:31:33;;;;;;;8.98;2.72;;;5.20;99.90;;;;;;5070375;28;20561;-70
2023/12/16 03:34:01;;;;;;;11.27;3.03;;;5.20;99.90;;;;;;5070108;28;20598;-70
2023/12/16 03:36:29;;;;;;;12.32;3.40;;;5.20;99.90;;;;;;5070729;28;20045;-70
2023/12/16 03:38:56;;;;;;;10.85;2.95;;;5.20;99.90;;;;;;5070772;28;20443;-70
2023/12/16 03:41:23;;;;;;;15.68;3.38;;;5.20;99.90;;;;;;5070263;28;20393;-70
2023/12/16 03:43:51;;;;;;;16.00;3.03;;;5.20;99.90;;;;;;5071621;28;20060;-70
2023/12/16 03:46:18;;;;;;;9.32;2.72;;;5.20;99.90;;;;;;5070625;28;20040;-70
2023/12/16 03:48:45;;;;;;;16.75;2.90;;;5.20;99.90;;;;;;5070085;28;20083;-70
2023/12/16 03:51:13;;;;;;;13.90;3.90;;;5.10;99.90;;;;;;5070367;28;20049;-69
2023/12/16 03:53:40;;;;;;;11.85;2.67;;;5.20;99.90;;;;;;5068221;28;20059;-70
2023/12/16 03:56:08;;;;;;;11.57;2.50;;;5.10;99.90;;;;;;5069880;28;20056;-71
2023/12/16 03:58:35;;;;;;;17.35;3.13;;;5.20;99.90;;;;;;5070715;28;20052;-70
2023/12/16 04:01:02;;;;;;;9.32;2.88;;;5.20;99.90;;;;;;5070593;28;20428;-70
2023/12/16 04:03:29;;;;;;;13.50;3.53;;;5.20;99.90;;;;;;5069789;28;20048;-70
2023/12/16 04:05:56;;;;;;;12.93;3.38;;;5.20;99.90;;;;;;5070326;28;20102;-69
2023/12/16 04:08:24;;;;;;;8.48;3.22;;;5.20;99.90;;;;;;5070322;28;20431;-70
2023/12/16 04:10:51;;;;;;;10.30;2.80;;;5.10;99.90;;;;;;5073416;28;20052;-69
2023/12/16 04:13:17;;;;;;;15.82;3.90;;;5.50;99.90;;;;;;5074420;28;20048;-69
2023/12/16 04:15:44;;;;;;;10.68;3.20;;;5.10;99.90;;;;;;5073858;28;20048;-70
2023/12/16 04:18:11;;;;;;;19.73;3.83;;;5.10;99.90;;;;;;5071672;28;20454;-69
2023/12/16 04:20:38;;;;;;;7.93;2.92;;;5.20;99.90;;;;;;5074251;28;20048;-69
2023/12/16 04:23:05;;;;;;;15.30;3.53;;;5.20;99.90;;;;;;5073837;28;20105;-69
2023/12/16 04:25:33;;;;;;;7.40;2.80;;;5.20;99.90;;;;;;5075330;28;20055;-69
2023/12/16 04:28:00;;;;;;;10.98;3.50;;;5.20;99.90;;;;;;5074100;28;20049;-70
2023/12/16 04:30:27;;;;;;;7.97;3.15;;;5.20;99.90;;;;;;5073668;28;20158;-70
2023/12/16 04:32:54;;;;;;;12.90;3.30;;;5.10;99.90;;;;;;5073758;28;20492;-70
2023/12/16 04:35:20;;;;;;;10.82;3.08;;;5.20;99.90;;;;;;5074109;28;20500;-69
2023/12/16 04:37:47;;;;;;;11.30;3.05;;;5.20;99.90;;;;;;5071404;28;20101;-69
2023/12/16 04:40:14;;;;;;;20.10;4.25;;;5.20;99.90;;;;;;5074039;28;20052;-69
2023/12/16 04:42:43;;;;;;;12.70;2.85;;;5.20;99.90;;;;;;5073507;28;20052;-69
2023/12/16 04:45:10;;;;;;;11.93;3.63;;;5.20;99.90;;;;;;5105007;28;20638;-69
2023/12/16 04:47:37;;;;;;;10.80;3.50;;;5.20;99.90;;;;;;5073785;28;20114;-69
2023/12/16 04:50:05;;;;;;;15.20;3.85;;;5.20;99.90;;;;;;5073546;28;20040;-69
2023/12/16 04:52:32;;;;;;;11.70;3.20;;;5.10;99.90;;;;;;5070837;28;20520;-70
2023/12/16 04:54:59;;;;;;;12.38;3.10;;;5.20;99.90;;;;;;5073345;28;20512;-69
2023/12/16 04:57:26;;;;;;;9.43;3.30;;;5.20;99.90;;;;;;5073822;28;20493;-70
2023/12/16 04:59:54;;;;;;;13.95;3.38;;;5.20;99.90;;;;;;5073040;28;20559;-70
2023/12/16 05:02:21;;;;;;;14.35;3.63;;;5.30;99.90;;;;;;5073465;28;20048;-70
2023/12/16 05:04:48;;;;;;;12.05;3.15;;;5.30;99.90;;;;;;5073491;28;20540;-70
2023/12/16 05:07:15;;;;;;;15.00;4.03;;;5.30;99.90;;;;;;5073062;28;20491;-70
2023/12/16 05:09:42;;;;;;;18.90;4.07;;;5.30;99.90;;;;;;5073431;28;20048;-71
2023/12/16 05:12:09;;;;;;;10.20;3.33;;;5.30;99.90;;;;;;5070497;28;20405;-70
2023/12/16 05:14:36;;;;;;;14.02;3.72;;;5.30;99.90;;;;;;5073314;28;20053;-70
2023/12/16 05:17:04;;;;;;;10.80;3.60;;;5.30;99.90;;;;;;5073441;28;20102;-69
2023/12/16 05:19:31;;;;;;;16.00;4.07;;;5.40;99.90;;;;;;5072592;28;20113;-70
2023/12/16 05:21:58;;;;;;;16.15;5.15;;;5.40;99.90;;;;;;5072337;28;20102;-70
2023/12/16 05:24:25;;;;;;;15.25;3.85;;;5.40;99.90;;;;;;5072995;28;20052;-69
2023/12/16 05:26:51;;;;;;;16.10;4.55;;;5.40;99.90;;;;;;5072330;28;20052;-69
2023/12/16 05:29:18;;;;;;;10.93;3.95;;;5.50;99.90;;;;;;5072819;28;20052;-69
2023/12/16 05:31:45;;;;;;;15.63;4.07;;;5.60;99.90;;;;;;5072706;28;20098;-69
2023/12/16 05:34:13;;;;;;;11.98;3.80;;;5.60;99.90;;;;;;5072119;28;20048;-69
2023/12/16 05:36:40;;;;;;;20.98;4.82;;;5.70;99.90;;;;;;5072729;28;20045;-69
2023/12/16 05:39:07;;;;;;;18.08;3.90;;;5.70;99.90;;;;;;5072598;28;21047;-71
2023/12/16 05:41:34;;;;;;;16.95;5.05;;;5.70;99.90;;;;;;5072183;28;20053;-70
2023/12/16 05:44:01;;;;;;;10.60;4.35;;;5.80;99.90;;;;;;5072423;28;20066;-69
2023/12/16 05:46:28;;;;;;;13.68;4.78;;;5.80;99.90;;;;;;5072765;28;20055;-69
2023/12/16 05:48:55;;;;;;;10.05;4.43;;;5.90;99.90;;;;;;5072218;28;20475;-69
2023/12/16 05:51:23;;;;;;;17.52;4.63;;;5.90;99.90;;;;;;5072496;28;20044;-69
2023/12/16 05:53:50;;;;;;;15.07;4.90;;;5.90;99.90;;;;;;5072410;28;20048;-69
2023/12/16 05:56:17;;;;;;;10.70;4.28;;;5.90;99.90;;;;;;5072145;28;20099;-69
2023/12/16 05:58:44;;;;;;;13.18;4.38;;;6.00;99.90;;;;;;5072623;28;20106;-70
2023/12/16 06:01:11;;;;;;;18.92;4.65;;;6.00;99.90;;;;;;5072574;28;20114;-69
2023/12/16 06:03:38;;;;;;;23.17;5.30;;;6.10;99.90;;;;;;5070749;28;20090;-69
2023/12/16 06:06:06;;;;;;;24.63;4.90;;;6.10;99.90;;;;;;5072439;28;20064;-69
2023/12/16 06:08:34;;;;;;;18.20;4.65;;;6.20;99.90;;;;;;5071610;28;20048;-69
2023/12/16 06:11:01;;;;;;;18.27;5.70;;;6.20;99.90;;;;;;5072214;28;20096;-69
2023/12/16 06:13:28;;;;;;;15.85;5.82;;;6.30;99.90;;;;;;5072290;28;20056;-70
2023/12/16 06:15:54;;;;;;;17.23;5.95;;;6.30;99.90;;;;;;5071551;28;20053;-70
2023/12/16 06:18:21;;;;;;;13.20;5.07;;;6.30;99.90;;;;;;5072100;28;20052;-70
2023/12/16 06:20:48;;;;;;;21.23;5.63;;;6.40;99.90;;;;;;5073164;28;20056;-70
2023/12/16 06:23:15;;;;;;;20.27;5.93;;;6.40;99.90;;;;;;5071493;28;20055;-69
2023/12/16 06:25:43;;;;;;;26.58;6.47;;;6.40;99.90;;;;;;5071596;28;20040;-70
2023/12/16 06:28:10;;;;;;;21.45;5.68;;;6.50;99.90;;;;;;5071797;28;20040;-69
2023/12/16 06:30:39;;;;;;;19.52;6.72;;;6.60;99.90;;;;;;5071167;28;20435;-69
2023/12/16 06:33:06;;;;;;;24.63;6.57;;;6.60;99.90;;;;;;5070879;28;20052;-69
2023/12/16 06:35:33;;;;;;;27.20;6.88;;;6.60;99.90;;;;;;5072161;28;20072;-70
2023/12/16 06:38:00;;;;;;;21.98;7.57;;;6.60;99.90;;;;;;5071374;28;20048;-69
2023/12/16 06:40:27;;;;;;;24.63;7.35;;;6.70;99.90;;;;;;5071605;28;20492;-69
2023/12/16 06:42:55;;;;;;;18.10;6.00;;;6.70;99.90;;;;;;5069378;28;20058;-69
2023/12/16 06:45:22;;;;;;;31.42;7.43;;;6.80;99.90;;;;;;5070684;28;20045;-69
2023/12/16 06:47:49;;;;;;;25.95;7.47;;;6.80;99.90;;;;;;5065255;28;20053;-69
2023/12/16 06:50:16;;;;;;;22.98;8.13;;;6.80;99.90;;;;;;5067826;28;20098;-70
2023/12/16 06:52:43;;;;;;;32.83;8.73;;;6.80;99.90;;;;;;5067513;28;20055;-70
2023/12/16 06:55:10;;;;;;;23.08;7.15;;;7.00;99.90;;;;;;5071049;28;20118;-71
2023/12/16 06:57:37;;;;;;;21.15;6.57;;;6.90;99.90;;;;;;5070382;28;20101;-69
2023/12/16 07:00:07;;;;;;;24.48;8.73;;;6.90;99.90;;;;;;5070809;28;20049;-70
2023/12/16 07:02:34;;;;;;;27.30;7.27;;;6.90;99.90;;;;;;5071082;28;20044;-69
2023/12/16 07:05:00;;;;;;;19.17;6.95;;;7.00;99.90;;;;;;5070151;28;20543;-70
2023/12/16 07:07:28;;;;;;;24.58;7.47;;;7.00;99.90;;;;;;5070852;28;20048;-69
2023/12/16 07:09:55;;;;;;;38.13;9.05;;;7.00;99.90;;;;;;5072910;28;20052;-70
2023/12/16 07:12:21;;;;;;;28.00;7.53;;;7.10;99.90;;;;;;5070046;28;20052;-70
2023/12/16 07:14:48;;;;;;;25.90;9.18;;;7.10;99.90;;;;;;5070430;28;20052;-71
2023/12/16 07:17:16;;;;;;;29.98;9.10;;;7.10;99.90;;;;;;5070424;28;21591;-70
2023/12/16 07:19:43;;;;;;;29.05;7.50;;;7.10;99.90;;;;;;5070799;28;20102;-70
2023/12/16 07:22:10;;;;;;;28.08;7.95;;;7.10;99.90;;;;;;5070346;28;20105;-70
2023/12/16 07:24:37;;;;;;;28.10;9.25;;;7.20;99.90;;;;;;5070359;28;20040;-69
2023/12/16 07:27:05;;;;;;;30.42;9.32;;;7.00;99.90;;;;;;5068019;28;20045;-69
2023/12/16 07:29:34;;;;;;;31.25;8.90;;;7.10;99.90;;;;;;5071172;28;20555;-69
2023/12/16 07:32:01;;;;;;;27.10;8.73;;;7.10;99.90;;;;;;5070054;28;20048;-70
2023/12/16 07:34:29;;;;;;;33.60;9.10;;;7.00;99.90;;;;;;5067407;28;20489;-70
2023/12/16 07:36:57;;;;;;;27.15;8.85;;;7.00;99.90;;;;;;5070073;28;20060;-69
2023/12/16 07:39:25;;;;;;;37.22;9.20;;;7.00;99.90;;;;;;5069867;28;20048;-70
2023/12/16 07:41:51;;;;;;;29.70;9.50;;;7.00;99.90;;;;;;5069281;28;20051;-69
2023/12/16 07:44:18;;;;;;;35.30;10.30;;;7.00;99.90;;;;;;5068147;28;20055;-70
2023/12/16 07:46:45;;;;;;;33.83;10.10;;;7.00;99.90;;;;;;5068230;28;20048;-71
2023/12/16 07:49:12;;;;;;;33.05;9.20;;;7.00;99.90;;;;;;5069490;28;20060;-70
2023/12/16 07:51:40;;;;;;;34.00;9.45;;;7.00;99.90;;;;;;5069700;28;20550;-70
2023/12/16 07:54:07;;;;;;;23.83;9.32;;;7.00;99.90;;;;;;5069351;28;20060;-70
2023/12/16 07:56:34;;;;;;;35.90;9.35;;;7.00;99.90;;;;;;5070032;28;20052;-70
2023/12/16 07:59:01;;;;;;;30.88;10.50;;;7.00;99.90;;;;;;5068594;28;20053;-70
2023/12/16 08:01:28;;;;;;;36.92;10.75;;;7.00;99.90;;;;;;5070577;28;20052;-70
2023/12/16 08:03:55;;;;;;;28.10;9.82;;;7.00;99.90;;;;;;5072193;28;20072;-70
2023/12/16 08:06:22;;;;;;;27.27;9.55;;;7.10;99.90;;;;;;5072959;28;20067;-70
2023/12/16 08:08:50;;;;;;;32.15;10.48;;;7.00;99.90;;;;;;5071951;28;20041;-71
2023/12/16 08:11:17;;;;;;;29.98;9.85;;;7.00;99.90;;;;;;5069326;28;20477;-69
2023/12/16 08:13:43;;;;;;;36.58;10.65;;;7.10;99.90;;;;;;5069066;28;20052;-70
2023/12/16 08:16:11;;;;;;;27.33;9.30;;;7.00;99.90;;;;;;5070079;28;20060;-72
2023/12/16 08:18:38;;;;;;;31.70;9.90;;;7.10;99.90;;;;;;5069487;28;20055;-70
2023/12/16 08:21:05;;;;;;;33.20;10.05;;;7.10;99.90;;;;;;5069803;28;20196;-71
2023/12/16 08:23:32;;;;;;;30.73;10.02;;;7.10;99.90;;;;;;5068965;28;20041;-70
2023/12/16 08:26:01;;;;;;;34.97;10.55;;;7.10;99.90;;;;;;5069475;28;20060;-70
2023/12/16 08:28:28;;;;;;;32.38;10.73;;;7.10;99.90;;;;;;5069377;28;20048;-70
2023/12/16 08:30:54;;;;;;;36.08;11.63;;;7.20;99.90;;;;;;5069148;28;20396;-71
2023/12/16 08:33:21;;;;;;;29.98;9.73;;;7.20;99.90;;;;;;5069304;28;20052;-70
2023/12/16 08:35:48;;;;;;;48.33;10.50;;;7.20;99.90;;;;;;5069583;28;20090;-70
2023/12/16 08:38:15;;;;;;;28.33;9.07;;;7.30;99.90;;;;;;5068941;28;20048;-70
2023/12/16 08:40:42;;;;;;;34.92;9.90;;;7.20;99.90;;;;;;5067231;28;20048;-70
2023/12/16 08:43:10;;;;;;;34.97;11.85;;;7.40;99.90;;;;;;5068186;28;20405;-71
2023/12/16 08:45:37;;;;;;;38.05;10.35;;;7.30;99.90;;;;;;5063794;28;20056;-71
2023/12/16 08:48:04;;;;;;;31.52;9.60;;;7.30;99.90;;;;;;5068143;28;20101;-71
2023/12/16 08:50:31;;;;;;;41.88;10.50;;;7.30;99.90;;;;;;5101154;28;20048;-71
2023/12/16 08:52:58;;;;;;;30.67;9.75;;;7.30;99.90;;;;;;5067985;28;20063;-71
2023/12/16 08:55:27;;;;;;;31.60;10.18;;;7.40;99.90;;;;;;5065709;28;20064;-70
2023/12/16 08:57:54;;;;;;;39.67;9.88;;;7.30;99.90;;;;;;5071289;28;20049;-70
2023/12/16 09:00:22;;;;;;;40.58;9.70;;;7.30;99.90;;;;;;5073211;28;20443;-70
2023/12/16 09:02:49;;;;;;;32.17;9.45;;;7.40;99.90;;;;;;5072320;28;20404;-70
2023/12/16 09:05:19;;;;;;;28.20;9.85;;;7.30;99.90;;;;;;5073764;28;20124;-70
2023/12/16 09:07:45;;;;;;;33.20;9.52;;;7.30;99.90;;;;;;5073081;28;20144;-70
2023/12/16 09:10:14;;;;;;;37.60;10.55;;;7.30;99.90;;;;;;5073067;28;20393;-70
2023/12/16 09:12:41;;;;;;;30.90;9.27;;;7.30;99.90;;;;;;5070540;28;20060;-70
2023/12/16 09:15:09;;;;;;;31.83;9.82;;;7.30;99.90;;;;;;5073146;28;20436;-70
2023/12/16 09:17:37;;;;;;;25.65;9.35;;;7.30;99.90;;;;;;5072964;28;20574;-70
2023/12/16 09:20:05;;;;;;;37.08;11.25;;;7.30;99.90;;;;;;5072390;28;20048;-70
2023/12/16 09:22:32;;;;;;;29.52;9.90;;;7.30;99.90;;;;;;5072891;28;20098;-70
2023/12/16 09:25:00;;;;;;;24.80;9.82;;;7.40;99.90;;;;;;5072825;28;20451;-71
2023/12/16 09:27:27;;;;;;;31.80;9.70;;;7.30;99.90;;;;;;5072435;28;20401;-70
2023/12/16 09:29:54;;;;;;;32.33;10.98;;;7.40;99.90;;;;;;5072809;28;20052;-70
2023/12/16 09:32:21;;;;;;;26.85;10.77;;;7.40;99.90;;;;;;5072917;28;20044;-70
2023/12/16 09:34:49;;;;;;;24.08;10.20;;;7.40;99.90;;;;;;5070158;28;20089;-69
2023/12/16 09:37:16;;;;;;;34.40;9.82;;;7.40;99.90;;;;;;5072771;28;20439;-70
2023/12/16 09:39:43;;;;;;;37.60;11.10;;;7.40;99.90;;;;;;5072418;28;20056;-69
2023/12/16 09:42:12;;;;;;;30.55;10.90;;;7.50;99.90;;;;;;5072867;28;20048;-69
2023/12/16 09:44:41;;;;;;;28.52;10.73;;;7.50;99.90;;;;;;5072466;28;20098;-71
2023/12/16 09:47:09;;;;;;;36.10;10.50;;;7.40;99.90;;;;;;5072086;28;20114;-71
2023/12/16 09:49:38;;;;;;;27.50;9.93;;;7.40;99.90;;;;;;5070664;28;20048;-71
2023/12/16 09:52:06;;;;;;;35.45;10.95;;;7.40;99.90;;;;;;5072469;28;20052;-71
2023/12/16 09:54:33;;;;;;;32.45;10.55;;;7.50;99.90;;;;;;5072084;28;20086;-70
2023/12/16 09:57:02;;;;;;;23.48;10.38;;;7.50;99.90;;;;;;5070096;28;20054;-69
2023/12/16 09:59:31;;;;;;;34.92;10.05;;;7.50;99.90;;;;;;5070460;28;20052;-69
2023/12/16 10:02:03;;;;;;;31.35;11.00;;;7.50;99.90;;;;;;5070883;28;20072;-70
2023/12/16 10:04:30;;;;;;;34.20;10.00;;;7.50;99.90;;;;;;5072444;28;20102;-70
2023/12/16 10:06:57;;;;;;;38.70;10.80;;;7.50;99.90;;;;;;5069763;28;20053;-70
2023/12/16 10:09:25;;;;;;;30.02;10.60;;;7.50;99.90;;;;;;5071755;28;20045;-70
2023/12/16 10:11:54;;;;;;;31.88;10.43;;;7.60;99.90;;;;;;5072982;28;20048;-70
2023/12/16 10:14:21;;;;;;;30.13;9.90;;;7.50;99.90;;;;;;5065849;28;20044;-70
2023/12/16 10:16:48;;;;;;;35.92;11.00;;;7.80;99.90;;;;;;5069580;28;20086;-70
2023/12/16 10:19:18;;;;;;;31.40;10.93;;;7.50;99.90;;;;;;5062870;28;20048;-71
2023/12/16 10:21:45;;;;;;;28.17;9.82;;;7.60;99.90;;;;;;5069355;28;20447;-70
2023/12/16 10:24:15;;;;;;;34.10;11.95;;;7.60;99.90;;;;;;5066161;28;20052;-71
2023/12/16 10:26:44;;;;;;;39.50;11.55;;;7.70;99.90;;;;;;5067161;28;20410;-71
2023/12/16 10:29:11;;;;;;;31.58;10.05;;;7.70;99.90;;;;;;5067894;28;20048;-71
2023/12/16 10:31:39;;;;;;;31.00;9.95;;;7.60;99.90;;;;;;5071050;28;20052;-71
2023/12/16 10:34:06;;;;;;;26.38;10.13;;;7.70;99.90;;;;;;5070100;28;20052;-71
2023/12/16 10:36:33;;;;;;;30.25;10.60;;;7.70;99.90;;;;;;5099059;28;20581;-71
2023/12/16 10:39:00;;;;;;;28.98;11.15;;;7.70;99.90;;;;;;5070352;28;20080;-71
2023/12/16 10:41:27;;;;;;;26.33;10.88;;;7.70;99.90;;;;;;5070974;28;20393;-71
2023/12/16 10:43:55;;;;;;;31.15;10.68;;;7.80;99.90;;;;;;5069071;28;20470;-71
2023/12/16 10:46:25;;;;;;;30.23;10.82;;;7.70;99.90;;;;;;5070477;28;20040;-71
2023/12/16 10:48:55;;;;;;;37.05;11.50;;;7.80;99.90;;;;;;5066650;28;20131;-69
2023/12/16 10:51:23;;;;;;;30.83;11.02;;;7.80;99.90;;;;;;5070384;28;20461;-70
2023/12/16 10:53:58;;;;;;;31.45;11.70;;;7.80;99.90;;;;;;5069678;28;20078;-70
2023/12/16 10:56:30;;;;;;;38.17;11.60;;;7.90;99.90;;;;;;5068680;28;20555;-70
2023/12/16 10:59:04;;;;;;;29.15;11.00;;;8.00;99.90;;;;;;5069306;28;20056;-70
2023/12/16 11:01:35;;;;;;;31.02;10.57;;;7.90;99.90;;;;;;5070190;28;20056;-70
2023/12/16 11:04:10;;;;;;;30.65;10.60;;;8.00;99.90;;;;;;5069250;28;20044;-69
2023/12/16 11:06:43;;;;;;;24.05;10.10;;;8.10;99.90;;;;;;5070241;28;20041;-70
2023/12/16 11:09:11;;;;;;;26.73;10.30;;;8.10;99.90;;;;;;5069765;28;20492;-70
2023/12/16 11:11:40;;;;;;;19.80;8.48;;;8.10;99.90;;;;;;5069875;28;20447;-70
2023/12/16 11:14:10;;;;;;;17.58;8.07;;;8.20;99.90;;;;;;5068897;28;20063;-70
2023/12/16 11:16:42;;;;;;;21.52;7.78;;;8.20;99.90;;;;;;5070589;28;20044;-70
2023/12/16 11:19:10;;;;;;;15.05;6.30;;;8.30;99.90;;;;;;5068020;28;20048;-71
2023/12/16 11:21:41;;;;;;;16.48;7.47;;;8.30;99.90;;;;;;5070442;28;20044;-70
2023/12/16 11:24:10;;;;;;;17.15;7.38;;;8.50;99.90;;;;;;5068481;28;20052;-70
2023/12/16 11:26:37;;;;;;;13.43;6.97;;;8.40;99.90;;;;;;5068497;28;20048;-70
2023/12/16 11:29:04;;;;;;;20.48;7.50;;;8.40;99.90;;;;;;5070669;28;20052;-70
2023/12/16 11:31:32;;;;;;;18.38;7.95;;;8.40;99.90;;;;;;5070585;28;20053;-70
2023/12/16 11:33:59;;;;;;;17.88;8.27;;;8.40;99.90;;;;;;5069258;28;20044;-71
2023/12/16 11:36:48;;;;;;;15.48;7.90;;;8.40;99.90;;;;;;5070364;28;20048;-69
2023/12/16 11:39:38;;;;;;;14.32;7.88;;;8.40;99.90;;;;;;5070219;28;20044;-70
2023/12/16 11:42:05;;;;;;;19.42;7.32;;;8.40;99.90;;;;;;5070739;28;20467;-70
2023/12/16 11:44:53;;;;;;;15.13;6.57;;;8.40;99.90;;;;;;5069904;28;20048;-70
2023/12/16 11:47:26;;;;;;;15.50;6.35;;;8.50;99.90;;;;;;5063713;28;20054;-70
2023/12/16 11:49:54;;;;;;;12.77;6.05;;;8.50;99.90;;;;;;5070741;28;20052;-70
2023/12/16 11:52:23;;;;;;;11.20;5.13;;;8.50;99.90;;;;;;5070530;28;20052;-70
2023/12/16 11:54:54;;;;;;;11.35;5.60;;;8.60;99.90;;;;;;5070029;28;21611;-70
2023/12/16 11:57:22;;;;;;;11.70;5.32;;;8.60;99.90;;;;;;5070473;28;20063;-70
2023/12/16 11:59:50;;;;;;;11.23;5.82;;;8.60;99.90;;;;;;5070375;28;20565;-70
2023/12/16 12:02:17;;;;;;;9.88;5.10;;;8.60;99.90;;;;;;5069683;28;20045;-70
2023/12/16 12:04:45;;;;;;;10.02;4.78;;;8.60;99.90;;;;;;5070458;28;20500;-72
2023/12/16 12:07:13;;;;;;;14.25;5.47;;;8.60;99.90;;;;;;5070667;28;20492;-69
2023/12/16 12:09:41;;;;;;;10.27;5.68;;;8.60;99.90;;;;;;5069809;28;20048;-70
2023/12/16 12:12:08;;;;;;;10.02;5.00;;;8.70;99.90;;;;;;5070313;28;20053;-70
2023/12/16 12:14:38;;;;;;;10.35;5.65;;;8.80;99.90;;;;;;5069633;28;20044;-70
2023/12/16 12:17:06;;;;;;;9.60;5.20;;;8.60;99.90;;;;;;5070523;28;20139;-70
2023/12/16 12:19:33;;;;;;;10.10;5.43;;;8.60;99.90;;;;;;5070235;28;20474;-70
2023/12/16 12:22:02;;;;;;;11.23;5.43;;;8.70;99.90;;;;;;5069968;28;20405;-70
2023/12/16 12:24:29;;;;;;;9.75;4.97;;;8.60;99.90;;;;;;5068520;28;20072;-70
2023/12/16 12:26:56;;;;;;;10.85;4.90;;;8.70;99.90;;;;;;5071896;28;20133;-71
2023/12/16 12:29:23;;;;;;;8.73;4.97;;;8.60;99.90;;;;;;5069462;28;20040;-71
2023/12/16 12:31:50;;;;;;;9.77;5.60;;;8.60;99.90;;;;;;5069942;28;20068;-70
2023/12/16 12:34:18;;;;;;;8.25;4.93;;;8.80;99.90;;;;;;5073591;28;20051;-70
2023/12/16 12:36:46;;;;;;;8.98;4.93;;;8.60;99.90;;;;;;5073162;28;20076;-70
2023/12/16 12:39:17;;;;;;;10.73;5.00;;;8.70;99.90;;;;;;5072102;28;20075;-70
2023/12/16 12:41:44;;;;;;;12.45;5.05;;;8.70;99.90;;;;;;5071820;28;20052;-70
2023/12/16 12:44:12;;;;;;;9.23;5.03;;;8.70;99.90;;;;;;5072870;28;20395;-70
2023/12/16 12:46:47;;;;;;;11.25;5.97;;;8.70;99.90;;;;;;5073728;28;20076;-70
2023/12/16 12:49:14;;;;;;;15.70;6.07;;;8.80;99.90;;;;;;5073726;28;20060;-70